createdAt,value
2023-11-14T00:00:25.272Z,3.33
2023-11-14T00:02:52.232Z,3.20
2023-11-14T00:05:19.215Z,4.17
2023-11-14T00:07:46.100Z,2.97
2023-11-14T00:10:13.317Z,3.67
2023-11-14T00:12:40.184Z,3.30
2023-11-14T00:15:08.391Z,4.77
2023-11-14T00:17:35.947Z,3.90
2023-11-14T00:20:03.084Z,3.13
2023-11-14T00:22:30.219Z,3.73
2023-11-14T00:24:58.126Z,4.00
2023-11-14T00:27:24.971Z,3.30
2023-11-14T00:29:51.855Z,3.33
2023-11-14T00:32:19.761Z,3.83
2023-11-14T00:34:49.913Z,3.97
2023-11-14T00:37:18.400Z,3.97
2023-11-14T00:39:45.262Z,3.87
2023-11-14T00:42:13.727Z,3.40
2023-11-14T00:44:42.132Z,3.50
2023-11-14T00:47:09.241Z,3.40
2023-11-14T00:49:36.100Z,3.60
2023-11-14T00:52:03.234Z,4.00
2023-11-14T00:54:32.305Z,3.93
2023-11-14T00:56:59.824Z,3.80
2023-11-14T00:59:27.802Z,3.63
2023-11-14T01:01:55.984Z,4.23
2023-11-14T01:04:22.982Z,4.03
2023-11-14T01:06:49.867Z,3.70
2023-11-14T01:09:16.765Z,4.23
2023-11-14T01:11:43.644Z,3.30
2023-11-14T01:14:11.931Z,4.40
2023-11-14T01:16:40.260Z,4.00
2023-11-14T01:19:07.211Z,3.57
2023-11-14T01:21:34.088Z,3.40
2023-11-14T01:24:01.001Z,3.53
2023-11-14T01:26:36.622Z,3.47
2023-11-14T01:29:05.929Z,4.67
2023-11-14T01:31:33.005Z,3.53
2023-11-14T01:33:59.994Z,3.87
2023-11-14T01:36:28.006Z,3.73
2023-11-14T01:38:54.851Z,3.90
2023-11-14T01:41:22.103Z,3.90
2023-11-14T01:43:49.333Z,4.13
2023-11-14T01:46:22.744Z,3.43
2023-11-14T01:48:53.644Z,4.63
2023-11-14T01:51:23.917Z,4.70
2023-11-14T01:53:53.227Z,3.43
2023-11-14T01:56:21.620Z,3.97
2023-11-14T01:58:51.637Z,4.00
2023-11-14T02:01:21.698Z,3.90
2023-11-14T02:03:49.348Z,3.70
2023-11-14T02:06:16.651Z,5.40
2023-11-14T02:08:44.659Z,3.93
2023-11-14T02:11:11.710Z,4.17
2023-11-14T02:13:39.853Z,3.90
2023-11-14T02:16:07.033Z,4.10
2023-11-14T02:18:34.551Z,3.57
2023-11-14T02:21:01.550Z,4.57
2023-11-14T02:23:36.616Z,3.70
2023-11-14T02:26:03.963Z,4.63
2023-11-14T02:28:31.655Z,4.20
2023-11-14T02:30:59.277Z,4.53
2023-11-14T02:33:26.966Z,4.30
2023-11-14T02:35:53.799Z,4.40
2023-11-14T02:38:20.647Z,4.07
2023-11-14T02:40:50.835Z,3.87
2023-11-14T02:43:18.139Z,3.60
2023-11-14T02:45:45.056Z,4.10
2023-11-14T02:48:12.001Z,4.07
2023-11-14T02:50:56.812Z,4.13
2023-11-14T02:53:24.598Z,4.23
2023-11-14T02:55:52.942Z,3.77
2023-11-14T02:58:20.794Z,3.90
2023-11-14T03:00:50.147Z,4.37
2023-11-14T03:03:17.669Z,4.40
2023-11-14T03:05:46.837Z,4.13
2023-11-14T03:08:14.158Z,3.77
2023-11-14T03:10:41.332Z,4.40
2023-11-14T03:13:10.161Z,4.70
2023-11-14T03:15:37.798Z,4.33
2023-11-14T03:18:06.293Z,4.10
2023-11-14T03:20:35.192Z,3.53
2023-11-14T03:23:04.336Z,4.27
2023-11-14T03:25:31.658Z,3.93
2023-11-14T03:28:02.337Z,4.10
2023-11-14T03:35:08.404Z,3.33
2023-11-14T03:37:35.369Z,3.83
2023-11-14T03:40:06.049Z,4.23
2023-11-14T03:42:36.884Z,3.83
2023-11-14T03:45:04.700Z,4.60
2023-11-14T03:47:31.679Z,3.73
2023-11-14T03:49:58.606Z,4.50
2023-11-14T03:52:26.846Z,4.47
2023-11-14T03:54:53.989Z,4.00
2023-11-14T03:57:22.576Z,4.13
2023-11-14T03:59:49.586Z,4.37
2023-11-14T04:02:16.564Z,3.73
2023-11-14T04:04:44.180Z,3.90
2023-11-14T04:07:11.161Z,3.97
2023-11-14T04:09:41.532Z,5.77
2023-11-14T04:12:08.831Z,4.60
2023-11-14T04:14:35.921Z,5.63
2023-11-14T04:17:04.574Z,3.67
2023-11-14T04:19:31.633Z,3.93
2023-11-14T04:21:58.643Z,4.87
2023-11-14T04:24:25.566Z,3.50
2023-11-14T04:26:53.135Z,4.20
2023-11-14T04:29:20.076Z,4.50
2023-11-14T04:31:47.193Z,4.37
2023-11-14T04:34:15.014Z,4.43
2023-11-14T04:36:42.574Z,4.13
2023-11-14T04:39:12.027Z,4.03
2023-11-14T04:41:39.073Z,3.57
2023-11-14T04:44:06.723Z,3.90
2023-11-14T04:46:34.651Z,3.60
2023-11-14T04:49:01.661Z,4.10
2023-11-14T04:51:28.555Z,4.03
2023-11-14T04:53:55.432Z,4.67
2023-11-14T04:56:22.675Z,4.10
2023-11-14T04:58:50.590Z,4.07
2023-11-14T05:01:17.657Z,4.17
2023-11-14T05:03:44.939Z,3.90
2023-11-14T05:06:12.027Z,4.20
2023-11-14T05:08:38.981Z,4.27
2023-11-14T05:11:07.823Z,3.90
2023-11-14T05:13:34.958Z,3.40
2023-11-14T05:16:11.158Z,4.23
2023-11-14T05:18:46.199Z,3.60
2023-11-14T05:21:13.107Z,3.73
2023-11-14T05:23:39.997Z,3.87
2023-11-14T05:26:06.974Z,3.50
2023-11-14T05:28:34.118Z,3.33
2023-11-14T05:31:01.118Z,3.60
2023-11-14T05:33:27.990Z,3.67
2023-11-14T05:35:54.921Z,3.80
2023-11-14T05:38:22.725Z,4.20
2023-11-14T05:40:49.676Z,3.60
2023-11-14T05:43:16.620Z,4.87
2023-11-14T05:45:44.284Z,4.70
2023-11-14T05:48:11.246Z,4.17
2023-11-14T05:50:38.152Z,4.73
2023-11-14T05:53:05.390Z,4.17
2023-11-14T05:55:32.258Z,4.17
2023-11-14T05:57:59.108Z,4.43
2023-11-14T06:00:26.184Z,3.60
2023-11-14T06:02:54.016Z,3.80
2023-11-14T06:05:21.016Z,3.83
2023-11-14T06:07:47.954Z,4.57
2023-11-14T06:10:15.270Z,3.87
2023-11-14T06:12:42.804Z,4.27
2023-11-14T06:15:11.348Z,4.03
2023-11-14T06:17:38.294Z,3.90
2023-11-14T06:20:06.416Z,3.97
2023-11-14T06:22:33.727Z,4.13
2023-11-14T06:25:03.354Z,3.77
2023-11-14T06:27:30.735Z,4.13
2023-11-14T06:29:57.884Z,4.33
2023-11-14T06:32:25.792Z,4.27
2023-11-14T06:34:53.496Z,3.97
2023-11-14T06:37:20.864Z,4.87
2023-11-14T06:39:48.341Z,4.00
2023-11-14T06:42:15.343Z,3.87
2023-11-14T06:44:45.883Z,4.40
2023-11-14T06:47:13.563Z,5.03
2023-11-14T06:49:40.813Z,5.20
2023-11-14T06:52:07.888Z,4.43
2023-11-14T06:54:35.026Z,4.33
2023-11-14T06:57:01.859Z,4.20
2023-11-14T06:59:31.625Z,3.60
2023-11-14T07:01:59.276Z,4.17
2023-11-14T07:04:26.765Z,3.87
2023-11-14T07:06:53.807Z,3.97
2023-11-14T07:09:22.969Z,4.00
2023-11-14T07:11:50.657Z,4.10
2023-11-14T07:14:22.596Z,4.43
2023-11-14T07:16:51.182Z,4.63
2023-11-14T07:19:19.457Z,4.40
2023-11-14T07:21:47.659Z,4.20
2023-11-14T07:24:15.559Z,4.77
2023-11-14T07:26:47.602Z,4.07
2023-11-14T07:29:14.838Z,4.00
2023-11-14T07:31:43.610Z,4.57
2023-11-14T07:34:10.814Z,3.97
2023-11-14T07:36:38.135Z,3.70
2023-11-14T07:39:06.362Z,4.30
2023-11-14T07:41:34.209Z,4.50
2023-11-14T07:44:02.003Z,4.73
2023-11-14T07:46:28.974Z,4.83
2023-11-14T07:48:56.144Z,3.90
2023-11-14T07:51:23.398Z,4.13
2023-11-14T07:53:50.964Z,3.53
2023-11-14T07:56:17.970Z,3.57
2023-11-14T07:58:44.959Z,4.57
2023-11-14T08:01:11.915Z,3.60
2023-11-14T08:03:38.917Z,4.23
2023-11-14T08:06:06.311Z,3.77
2023-11-14T08:08:36.328Z,4.47
2023-11-14T08:11:03.692Z,4.20
2023-11-14T08:13:30.609Z,4.07
2023-11-14T08:15:57.498Z,4.03
2023-11-14T08:18:24.342Z,4.10
2023-11-14T08:20:52.199Z,3.53
2023-11-14T08:23:19.493Z,4.03
2023-11-14T08:25:46.567Z,3.30
2023-11-14T08:28:14.598Z,4.37
2023-11-14T08:30:41.605Z,4.30
2023-11-14T08:33:11.279Z,3.37
2023-11-14T08:35:38.333Z,4.20
2023-11-14T08:38:13.882Z,4.30
2023-11-14T08:40:44.867Z,4.00
2023-11-14T08:43:11.843Z,3.30
2023-11-14T08:45:39.706Z,3.60
2023-11-14T08:48:09.148Z,3.63
2023-11-14T08:50:37.172Z,4.17
2023-11-14T08:53:05.042Z,3.23
2023-11-14T08:55:32.653Z,4.43
2023-11-14T08:58:00.783Z,3.23
2023-11-14T09:00:28.146Z,3.47
2023-11-14T09:02:55.083Z,4.23
2023-11-14T09:05:22.037Z,2.93
2023-11-14T09:07:49.060Z,4.20
2023-11-14T09:10:16.087Z,3.20
2023-11-14T09:12:43.106Z,3.30
2023-11-14T09:15:10.725Z,3.13
2023-11-14T09:17:40.558Z,3.23
2023-11-14T09:20:12.821Z,3.00
2023-11-14T09:22:39.800Z,3.93
2023-11-14T09:25:08.998Z,3.40
2023-11-14T09:27:35.860Z,3.03
2023-11-14T09:30:04.050Z,3.30
2023-11-14T09:32:31.266Z,3.07
2023-11-14T09:34:58.249Z,3.10
2023-11-14T09:37:25.234Z,2.90
2023-11-14T09:39:52.731Z,2.63
2023-11-14T09:42:20.049Z,2.77
2023-11-14T09:44:47.433Z,2.83
2023-11-14T09:47:16.395Z,2.70
2023-11-14T09:49:44.729Z,2.63
2023-11-14T09:52:13.118Z,3.03
2023-11-14T09:54:43.340Z,2.73
2023-11-14T09:57:13.850Z,2.37
2023-11-14T09:59:44.048Z,3.00
2023-11-14T10:02:12.279Z,2.53
2023-11-14T10:04:40.822Z,2.60
2023-11-14T10:07:11.196Z,2.80
2023-11-14T10:09:39.168Z,2.50
2023-11-14T10:12:20.327Z,2.80
2023-11-14T10:14:51.088Z,2.93
2023-11-14T10:17:19.349Z,2.67
2023-11-14T10:20:01.803Z,2.63
2023-11-14T10:22:29.122Z,2.43
2023-11-14T10:24:56.351Z,2.67
2023-11-14T10:27:28.524Z,2.40
2023-11-14T10:29:56.601Z,2.73
2023-11-14T10:32:25.272Z,2.73
2023-11-14T10:34:55.598Z,2.60
2023-11-14T10:37:34.389Z,2.47
2023-11-14T10:40:07.321Z,2.87
2023-11-14T10:42:34.424Z,2.23
2023-11-14T10:45:08.271Z,2.47
2023-11-14T10:47:45.486Z,2.63
2023-11-14T10:50:29.423Z,3.30
2023-11-14T10:53:03.222Z,2.70
2023-11-14T10:55:30.288Z,2.50
2023-11-14T10:57:57.220Z,2.70
2023-11-14T11:00:24.331Z,2.67
2023-11-14T11:02:54.173Z,2.40
2023-11-14T11:05:30.143Z,2.23
2023-11-14T11:08:09.147Z,2.60
2023-11-14T11:10:37.359Z,2.20
2023-11-14T11:13:25.890Z,2.53
2023-11-14T11:15:57.953Z,1.90
2023-11-14T11:18:32.472Z,2.13
2023-11-14T11:21:14.939Z,2.20
2023-11-14T11:24:11.225Z,2.13
2023-11-14T11:27:26.368Z,1.83
2023-11-14T11:30:06.001Z,1.70
2023-11-14T11:32:37.211Z,1.90
2023-11-14T11:35:20.921Z,1.70
2023-11-14T11:37:53.842Z,2.77
2023-11-14T11:40:29.624Z,2.47
2023-11-14T11:43:10.169Z,2.33
2023-11-14T11:45:42.579Z,1.90
2023-11-14T11:48:35.605Z,2.40
2023-11-14T11:51:24.460Z,2.30
2023-11-14T11:53:51.856Z,2.43
2023-11-14T11:57:04.370Z,2.47
2023-11-14T11:59:31.448Z,2.13
2023-11-14T12:02:03.129Z,2.30
2023-11-14T12:04:33.596Z,2.40
2023-11-14T12:07:02.439Z,2.40
2023-11-14T12:09:29.871Z,2.73
2023-11-14T12:11:56.720Z,2.77
2023-11-14T12:14:24.046Z,3.20
2023-11-14T12:16:51.517Z,3.03
2023-11-14T12:19:18.542Z,2.93
2023-11-14T12:21:48.535Z,3.40
2023-11-14T12:24:16.140Z,2.73
2023-11-14T12:26:43.164Z,3.17
2023-11-14T12:29:14.795Z,2.80
2023-11-14T12:32:02.708Z,3.10
2023-11-14T12:34:31.357Z,3.20
2023-11-14T12:37:15.933Z,2.80
2023-11-14T12:39:42.940Z,2.83
2023-11-14T12:42:10.629Z,2.90
2023-11-14T12:44:37.739Z,2.90
2023-11-14T12:47:06.806Z,3.53
2023-11-14T12:49:34.524Z,3.43
2023-11-14T12:52:04.071Z,2.63
2023-11-14T12:54:31.029Z,2.43
2023-11-14T12:56:58.053Z,2.27
2023-11-14T12:59:26.029Z,2.30
2023-11-14T13:01:53.201Z,2.17
2023-11-14T13:04:20.546Z,2.13
2023-11-14T13:06:48.861Z,2.67
2023-11-14T13:09:18.266Z,2.30
2023-11-14T13:11:46.119Z,2.43
2023-11-14T13:14:14.468Z,2.43
2023-11-14T13:16:42.464Z,2.20
2023-11-14T13:19:11.375Z,2.20
2023-11-14T13:21:38.366Z,2.80
2023-11-14T13:24:06.631Z,2.50
2023-11-14T13:26:34.407Z,2.57
2023-11-14T13:29:01.487Z,2.50
2023-11-14T13:31:28.417Z,2.80
2023-11-14T13:33:55.525Z,2.87
2023-11-14T13:36:24.882Z,2.50
2023-11-14T13:38:51.844Z,2.70
2023-11-14T13:41:18.819Z,3.10
2023-11-14T13:43:45.750Z,3.13
2023-11-14T13:46:23.290Z,3.07
2023-11-14T13:48:57.737Z,3.53
2023-11-14T13:51:26.036Z,3.00
2023-11-14T13:53:53.176Z,2.80
2023-11-14T13:56:20.680Z,3.30
2023-11-14T13:58:48.140Z,3.37
2023-11-14T14:01:17.580Z,2.80
2023-11-14T14:03:44.685Z,3.33
2023-11-14T14:06:11.665Z,3.23
2023-11-14T14:08:38.728Z,3.10
2023-11-14T14:11:09.962Z,2.47
2023-11-14T14:13:37.506Z,2.73
2023-11-14T14:16:05.367Z,2.70
2023-11-14T14:18:33.006Z,3.00
2023-11-14T14:21:04.927Z,2.73
2023-11-14T14:23:32.937Z,3.23
2023-11-14T14:26:05.806Z,3.00
2023-11-14T14:28:36.121Z,2.77
2023-11-14T14:31:07.730Z,2.20
2023-11-14T14:33:34.976Z,2.80
2023-11-14T14:36:02.195Z,3.17
2023-11-14T14:38:29.183Z,2.07
2023-11-14T14:40:56.170Z,2.63
2023-11-14T14:43:24.873Z,3.13
2023-11-14T14:45:55.278Z,3.30
2023-11-14T14:48:24.053Z,2.70
2023-11-14T14:50:55.093Z,2.83
2023-11-14T14:53:24.246Z,3.47
2023-11-14T14:55:51.726Z,3.10
2023-11-14T14:58:20.953Z,3.53
2023-11-14T15:00:48.432Z,3.47
2023-11-14T15:03:21.201Z,3.10
2023-11-14T15:05:52.709Z,3.20
2023-11-14T15:08:20.965Z,3.10
2023-11-14T15:10:49.535Z,2.83
2023-11-14T15:13:16.583Z,2.93
2023-11-14T15:15:44.513Z,2.83
2023-11-14T15:18:11.476Z,2.20
2023-11-14T15:20:38.629Z,2.63
2023-11-14T15:23:05.533Z,3.07
2023-11-14T15:25:34.740Z,2.50
2023-11-14T15:28:01.870Z,2.27
2023-11-14T15:30:28.835Z,2.90
2023-11-14T15:32:57.659Z,2.33
2023-11-14T15:35:25.792Z,2.63
2023-11-14T15:37:52.744Z,2.60
2023-11-14T15:40:19.769Z,2.30
2023-11-14T15:42:47.243Z,2.37
2023-11-14T15:45:14.137Z,2.47
2023-11-14T15:47:41.035Z,2.87
2023-11-14T15:50:08.404Z,2.80
2023-11-14T15:52:35.336Z,2.57
2023-11-14T15:55:05.793Z,2.30
2023-11-14T15:57:33.497Z,2.50
2023-11-14T16:00:00.562Z,2.50
2023-11-14T16:02:27.496Z,2.60
2023-11-14T16:04:54.413Z,2.23
2023-11-14T16:07:21.274Z,2.30
2023-11-14T16:09:48.116Z,2.60
2023-11-14T16:12:15.228Z,2.20
2023-11-14T16:14:42.054Z,1.90
2023-11-14T16:17:09.177Z,2.40
2023-11-14T16:19:38.090Z,2.00
2023-11-14T16:22:06.525Z,2.60
2023-11-14T16:24:33.891Z,2.47
2023-11-14T16:27:01.768Z,2.27
2023-11-14T16:29:29.133Z,2.37
2023-11-14T16:31:56.595Z,2.20
2023-11-14T16:34:23.909Z,2.10
2023-11-14T16:36:50.926Z,2.37
2023-11-14T16:39:18.008Z,2.13
2023-11-14T16:41:45.109Z,2.47
2023-11-14T16:44:12.958Z,2.27
2023-11-14T16:46:40.226Z,2.17
2023-11-14T16:49:07.545Z,2.90
2023-11-14T16:51:34.770Z,2.37
2023-11-14T16:54:02.758Z,2.07
2023-11-14T16:56:30.092Z,2.10
2023-11-14T16:58:59.034Z,1.97
2023-11-14T17:01:27.462Z,1.80
2023-11-14T17:03:58.539Z,2.03
2023-11-14T17:06:25.551Z,1.90
2023-11-14T17:08:52.628Z,1.80
2023-11-14T17:11:19.567Z,2.07
2023-11-14T17:13:46.558Z,2.00
2023-11-14T17:16:14.308Z,1.83
2023-11-14T17:18:41.431Z,3.43
2023-11-14T17:21:08.320Z,2.30
2023-11-14T17:23:38.421Z,2.13
2023-11-14T17:26:07.183Z,2.93
2023-11-14T17:28:37.200Z,3.90
2023-11-14T17:31:04.655Z,3.07
2023-11-14T17:33:31.523Z,2.60
2023-11-14T17:35:58.557Z,2.17
2023-11-14T17:38:25.443Z,2.27
2023-11-14T17:40:52.877Z,2.00
2023-11-14T17:43:20.221Z,1.83
2023-11-14T17:45:47.115Z,1.57
2023-11-14T17:48:14.045Z,1.70
2023-11-14T17:50:41.223Z,1.70
2023-11-14T17:53:08.587Z,1.50
2023-11-14T17:55:35.760Z,1.60
2023-11-14T17:58:05.622Z,1.70
2023-11-14T18:00:32.917Z,1.97
2023-11-14T18:03:01.539Z,2.03
2023-11-14T18:05:29.530Z,1.43
2023-11-14T18:07:57.415Z,1.40
2023-11-14T18:10:24.522Z,1.30
2023-11-14T18:12:51.401Z,1.20
2023-11-14T18:15:18.974Z,1.30
2023-11-14T18:17:46.484Z,1.47
2023-11-14T18:20:13.786Z,1.50
2023-11-14T18:22:41.085Z,1.57
2023-11-14T18:25:09.298Z,1.50
2023-11-14T18:27:36.322Z,1.67
2023-11-14T18:30:05.191Z,1.20
2023-11-14T18:32:33.738Z,1.70
2023-11-14T18:35:02.453Z,1.50
2023-11-14T18:37:29.478Z,1.60
2023-11-14T18:39:56.667Z,1.33
2023-11-14T18:42:23.600Z,1.50
2023-11-14T18:45:01.979Z,1.47
2023-11-14T18:47:38.465Z,1.50
2023-11-14T18:50:09.458Z,1.37
2023-11-14T18:52:36.965Z,1.50
2023-11-14T18:55:05.165Z,1.70
2023-11-14T18:57:34.278Z,1.63
2023-11-14T19:00:01.274Z,1.57
2023-11-14T19:02:30.845Z,1.47
2023-11-14T19:04:57.887Z,1.67
2023-11-14T19:07:27.662Z,1.50
2023-11-14T19:09:55.571Z,1.60
2023-11-14T19:12:24.332Z,1.40
2023-11-14T19:14:52.566Z,1.50
2023-11-14T19:17:20.446Z,1.47
2023-11-14T19:19:47.972Z,1.43
2023-11-14T19:22:41.697Z,1.70
2023-11-14T19:27:32.134Z,1.40
2023-11-14T19:29:59.189Z,1.50
2023-11-14T19:32:26.815Z,1.30
2023-11-14T19:34:55.148Z,1.30
2023-11-14T19:37:22.541Z,1.30
2023-11-14T19:39:49.777Z,1.40
2023-11-14T19:42:19.302Z,1.33
2023-11-14T19:44:46.533Z,1.27
2023-11-14T19:47:13.622Z,1.20
2023-11-14T19:49:45.202Z,1.20
2023-11-14T19:52:15.685Z,1.30
2023-11-14T19:54:44.916Z,1.30
2023-11-14T19:57:11.823Z,1.30
2023-11-14T19:59:38.709Z,1.17
2023-11-14T20:02:07.226Z,1.30
2023-11-14T20:04:34.334Z,1.30
2023-11-14T20:07:01.234Z,1.30
2023-11-14T20:09:29.757Z,1.30
2023-11-14T20:11:57.748Z,1.10
2023-11-14T20:14:24.770Z,1.30
2023-11-14T20:16:51.715Z,1.30
2023-11-14T20:19:19.432Z,1.17
2023-11-14T20:21:47.022Z,1.20
2023-11-14T20:24:14.107Z,1.40
2023-11-14T20:26:43.717Z,1.20
2023-11-14T20:29:10.784Z,1.37
2023-11-14T20:31:37.939Z,1.27
2023-11-14T20:34:04.897Z,1.53
2023-11-14T20:36:32.577Z,1.10
2023-11-14T20:39:00.531Z,1.20
2023-11-14T20:41:28.119Z,1.20
2023-11-14T20:43:56.831Z,1.50
2023-11-14T20:46:24.544Z,1.20
2023-11-14T20:48:51.796Z,1.20
2023-11-14T20:51:25.136Z,1.23
2023-11-14T20:54:02.053Z,1.40
2023-11-14T20:56:30.714Z,1.30
2023-11-14T20:58:57.665Z,1.30
2023-11-14T21:01:26.648Z,1.33
2023-11-14T21:03:54.888Z,1.30
2023-11-14T21:06:22.050Z,1.40
2023-11-14T21:08:49.266Z,1.37
2023-11-14T21:11:16.395Z,1.50
2023-11-14T21:13:43.426Z,1.57
2023-11-14T21:16:13.098Z,1.70
2023-11-14T21:18:41.756Z,1.53
2023-11-14T21:21:09.444Z,1.97
2023-11-14T21:23:39.766Z,1.70
2023-11-14T21:26:09.434Z,1.80
2023-11-14T21:28:37.500Z,1.80
2023-11-14T21:31:08.272Z,1.67
2023-11-14T21:33:36.912Z,1.80
2023-11-14T21:36:10.152Z,1.70
2023-11-14T21:38:38.139Z,1.70
2023-11-14T21:41:05.541Z,1.60
2023-11-14T21:43:32.589Z,1.50
2023-11-14T21:45:59.470Z,1.70
2023-11-14T21:48:26.970Z,1.60
2023-11-14T21:50:55.139Z,1.63
2023-11-14T21:53:22.242Z,1.90
2023-11-14T21:55:50.315Z,2.00
2023-11-14T21:58:17.196Z,1.73
2023-11-14T22:00:44.123Z,2.20
2023-11-14T22:03:11.190Z,2.40
2023-11-14T22:05:38.199Z,1.97
2023-11-14T22:08:05.489Z,2.20
2023-11-14T22:10:32.437Z,2.23
2023-11-14T22:12:59.578Z,2.30
2023-11-14T22:15:26.479Z,2.20
2023-11-14T22:17:53.496Z,2.20
2023-11-14T22:20:20.499Z,2.50
2023-11-14T22:22:47.622Z,2.40
2023-11-14T22:25:14.607Z,2.03
2023-11-14T22:27:42.377Z,2.27
2023-11-14T22:30:10.005Z,2.20
2023-11-14T22:32:36.986Z,2.03
2023-11-14T22:35:05.023Z,1.90
2023-11-14T22:37:31.961Z,2.00
2023-11-14T22:39:58.971Z,1.83
2023-11-14T22:42:26.014Z,2.00
2023-11-14T22:44:54.305Z,1.97
2023-11-14T22:47:21.310Z,1.80
2023-11-14T22:49:48.158Z,1.73
2023-11-14T22:52:15.034Z,1.80
2023-11-14T22:54:42.934Z,1.90
2023-11-14T22:57:10.217Z,2.07
2023-11-14T22:59:39.408Z,1.83
2023-11-14T23:02:06.402Z,1.70
2023-11-14T23:04:33.283Z,1.90
2023-11-14T23:07:00.281Z,1.80
2023-11-14T23:09:27.350Z,1.50
2023-11-14T23:11:56.405Z,1.70
2023-11-14T23:14:24.397Z,1.80
2023-11-14T23:16:51.571Z,1.90
2023-11-14T23:19:20.367Z,1.83
2023-11-14T23:21:54.937Z,1.90
2023-11-14T23:24:25.105Z,1.77
2023-11-14T23:26:53.632Z,1.83
2023-11-14T23:29:20.755Z,1.97
2023-11-14T23:31:47.684Z,2.00
2023-11-14T23:34:15.740Z,2.00
2023-11-14T23:36:42.952Z,2.20
2023-11-14T23:39:09.836Z,2.00
2023-11-14T23:41:37.109Z,1.70
2023-11-14T23:44:04.757Z,1.67
2023-11-14T23:46:31.888Z,2.00
2023-11-14T23:48:58.797Z,1.80
2023-11-14T23:51:25.999Z,1.87
2023-11-14T23:53:53.690Z,1.60
2023-11-14T23:56:20.927Z,1.80
2023-11-14T23:58:47.785Z,1.80
